メインページ
METAR-TAF:

METAR-TAF

空港 :

ベドフォード, マサチューセッツ州, アメリカ合衆国

緯度: 42-28-06N, 経度: 071-17-40W, 海抜: 40m

現時点の気象観測

当レポートは21分前の15:51(UTC)に作成
変向風 3kt
気温 -8°C
湿度 37%
気圧 1031 hPa
視程: 16.1km
高度14000ftの千切れ雲あり
高度18000ftの曇り

METAR: KBED 181551Z VRB03KT 10SM BKN140 OVC180 M08/M20 A3045 RMK AO2 SLP331 T10781200

時間: 11:12 (16:12 UTC)

予報

当レポートは1時間38分前の14:34(UTC)に作成
予報は18日の 15時(UTC)から 19日の 12時(UTC)まで有効
の風 kt
視程: 10km
高度12000ftの千切れ雲あり
高度22000ftの千切れ雲あり
18日の 1900時(UTC)から
の風 4kt
視程: 10km
高度7000ftの曇り
18日の 2200時(UTC)から
南/南東の風 5kt
視程: 3.2km
高度2500ftの曇り
小雪
19日の 0000時(UTC)から
南東の風 7kt
視程: 0.8km
高度800ftの曇り
19日の 0600時(UTC)から
南/南東の風 4kt
視程: 4.8km
高度800ftの曇り
靄, 近辺でにわか雨
19日の 1000時(UTC)から
西の風 4kt
視程: 10km
高度2500ftの千切れ雲あり

TAF: KBED 181434Z 1815/1912 00000KT P6SM BKN120 BKN220 FM181900 17004KT P6SM OVC070 FM182200 16005KT 2SM -SN OVC025 FM190000 14007KT 1/2SM SN OVC008 FM190600 16004KT 3SM BR VCSH OVC008 FM191000 26004KT P6SM BKN025

4,000以上の空港の気象観測と天気予報(METAR報とTAF報)

利用可能な観測所は地図上に黄色い丸と赤い丸で示す。

丸の上にカーソルを重ねると観測所名を参照できる。

次にクリックすると気象観測と天気予報を参照できる。

マップの切り替え:黒色「×」印の緑ボタンをクリックして拡大、「-」印の緑ボタンをクリックして縮小、緑色の三角印をクリックして隣りの地図に切り替え


METAR-TAF: